Latest Weather Observations for Yarram Airport

IDV60801

Issued at 5:12 pm EDT Saturday 5 December 2020 (issued every 10 minutes, with the page automatically refreshed every 10 minutes)

About weather observations | Map of weather stations | Latest weather observations for VIC | Other Formats
Station Details ID: 085151 Name: YARRAM AIRPORT Lat: -38.56 Lon: 146.75 Height: 17.9 m
Data from the previous 72 hours. | See also: Recent months at Yarram Airport
Date/Time
EDT
Temp
°C
App
Temp
°C
Dew
Point
°C
Rel
Hum
%
Delta-T
°C
Wind Press
QNH
hPa
Press
MSL
hPa
Rain since
9am
mm
Dir  Spd
km/h
Gust
km/h
Spd
kts
Gust
kts
05/05:00pm 19.0 17.5 15.3 79 2.2 N 17 20 9 11 993.8 993.7 0.4
05/04:30pm 19.9 17.3 13.8 68 3.5 N 20 28 11 15 995.2 995.1 0.0
05/04:00pm 19.8 19.4 16.1 79 2.2 NNE 13 17 7 9 995.6 995.5 0.0
05/03:30pm 21.0 19.3 14.6 67 3.7 NE 17 20 9 11 995.9 995.9 0.0
05/03:00pm 21.0 18.6 13.7 63 4.2 NE 19 30 10 16 996.2 996.2 0.0
05/02:30pm 20.5 17.8 13.5 64 4.0 NE 20 32 11 17 996.6 996.6 0.0
05/02:00pm 20.1 18.2 13.1 64 4.0 ENE 15 24 8 13 997.9 997.9 0.0
05/01:30pm 20.8 17.6 13.0 61 4.4 E 22 28 12 15 997.9 997.9 0.0
05/01:00pm 21.3 18.6 13.5 61 4.5 E 20 28 11 15 998.7 998.7 0.0
05/12:30pm 20.8 17.9 13.0 61 4.4 E 20 32 11 17 999.4 999.4 0.0
05/12:00pm 21.1 17.9 13.0 60 4.6 E 22 32 12 17 999.9 999.9 0.0
05/11:30am 21.2 18.1 12.3 57 5.0 E 20 30 11 16 1001.1 1001.1 0.0
05/11:00am 21.0 17.7 10.8 52 5.6 ENE 19 26 10 14 1002.0 1002.0 0.0
05/10:30am 19.3 16.4 11.1 59 4.5 ENE 17 24 9 13 1003.1 1003.1 0.0
05/10:00am 18.5 15.9 10.8 61 4.2 ENE 15 24 8 13 1004.1 1004.1 0.0
05/09:30am 17.5 14.4 10.4 63 3.8 NE 17 22 9 12 1004.9 1004.9 0.0
05/09:00am 16.8 13.7 10.4 66 3.4 NNE 17 24 9 13 1005.6 1005.6 0.0
05/08:30am 16.1 14.4 11.1 72 2.7 NE 11 17 6 9 1006.4 1006.4 0.0
05/08:00am 15.0 13.3 11.2 78 2.0 NE 11 15 6 8 1006.6 1006.6 0.0
05/07:30am 14.2 12.1 11.2 82 1.6 NE 13 20 7 11 1006.7 1006.7 0.0
05/07:00am 13.6 11.9 11.1 85 1.3 NNE 11 15 6 8 1007.5 1007.5 0.0
05/06:30am 12.9 11.4 10.4 85 1.3 NNE 9 15 5 8 1007.7 1007.7 0.0
05/06:00am 12.4 10.0 10.0 85 1.2 NE 13 17 7 9 1007.4 1007.4 0.0
05/05:30am 12.0 8.7 9.6 85 1.2 NE 17 20 9 11 1007.3 1007.3 0.0
05/05:00am 12.4 8.9 10.1 86 1.2 NE 19 24 10 13 1007.8 1007.8 0.0
05/04:30am 11.4 8.5 9.8 90 0.8 NE 15 17 8 9 1008.6 1008.6 0.0
05/04:00am 11.1 8.9 9.2 88 1.0 NNE 11 15 6 8 1009.5 1009.5 0.0
05/03:30am 10.5 8.0 8.4 87 1.0 NE 11 13 6 7 1010.8 1010.8 0.0
05/03:00am 9.8 7.6 7.9 88 0.9 NE 9 11 5 6 1011.1 1011.1 0.0
05/02:30am 10.4 8.4 8.5 88 0.9 ENE 9 13 5 7 1010.9 1010.9 0.0
05/02:00am 10.0 7.9 8.1 88 0.9 NNE 9 11 5 6 1012.4 1012.4 0.0
05/01:30am 10.3 8.2 8.4 88 0.9 NE 9 11 5 6 1012.1 1012.1 0.0
05/01:00am 10.1 7.6 8.4 89 0.8 NNE 11 13 6 7 1013.0 1013.0 0.0
05/12:30am 9.4 7.7 7.5 88 0.9 N 6 9 3 5 1013.1 1013.1 0.0
05/12:00am 10.5 8.9 8.6 88 0.9 NW 7 9 4 5 1013.4 1013.4 0.0
 
Date/Time
EDT
Temp
°C
App
Temp
°C
Dew
Point
°C
Rel
Hum
%
Delta-T
°C
Wind Press
QNH
hPa
Press
MSL
hPa
Rain since
9am
mm
Dir  Spd
km/h
Gust
km/h
Spd
kts
Gust
kts
04/11:30pm 11.0 8.7 8.9 87 1.0 WNW 11 13 6 7 1013.3 1013.3 0.0
04/11:00pm 10.5 8.1 8.6 88 0.9 WNW 11 13 6 7 1013.6 1013.6 0.0
04/10:30pm 11.1 9.1 8.7 85 1.2 W 9 11 5 6 1013.7 1013.7 0.0
04/10:00pm 11.0 9.4 8.8 86 1.1 W 7 9 4 5 1013.8 1013.8 0.0
04/09:30pm 11.2 9.1 8.2 82 1.5 SW 9 11 5 6 1013.6 1013.6 0.0
04/09:00pm 12.8 10.4 8.7 76 2.0 SW 11 13 6 7 1013.5 1013.5 0.0
04/08:30pm 14.5 11.4 8.9 69 2.8 SW 15 20 8 11 1013.8 1013.8 0.0
04/08:00pm 16.2 12.3 9.4 64 3.5 SW 20 26 11 14 1013.9 1013.9 0.0
04/07:30pm 17.6 12.7 9.8 60 4.1 SW 26 35 14 19 1014.0 1014.0 0.0
04/07:00pm 18.5 12.3 9.3 55 4.8 SW 32 41 17 22 1014.0 1014.0 0.0
04/06:30pm 19.4 13.5 9.0 51 5.5 WSW 30 43 16 23 1013.6 1013.6 0.0
04/06:00pm 20.3 14.3 8.6 47 6.1 WSW 30 41 16 22 1013.2 1013.2 0.0
04/05:30pm 20.5 14.0 8.2 45 6.4 WSW 32 43 17 23 1013.2 1013.2 0.0
04/05:06pm 21.5 14.8 8.1 42 7.0 WSW 33 52 18 28 1013.5 1013.5 0.0
04/05:00pm 21.3 13.9 6.8 39 7.4 WSW 35 52 19 28 1013.5 1013.5 0.0
04/04:57pm 20.8 13.7 6.4 39 7.3 WSW 33 52 18 28 1013.5 1013.5 0.0
04/04:30pm 21.4 14.9 8.3 43 6.9 WSW 32 44 17 24 1013.5 1013.5 0.0
04/04:00pm 21.7 14.7 6.8 38 7.6 WSW 33 48 18 26 1013.8 1013.8 0.0
04/03:30pm 22.0 14.8 7.8 40 7.4 WSW 35 46 19 25 1014.0 1014.0 0.0
04/03:00pm 21.0 14.0 8.6 45 6.5 WSW 35 46 19 25 1014.3 1014.3 0.0
04/02:31pm 22.4 16.4 8.5 41 7.4 WSW 30 48 16 26 1014.6 1014.6 0.0
04/02:30pm 22.8 16.9 8.9 41 7.4 WSW 30 41 16 22 1014.6 1014.6 0.0
04/02:02pm 21.8 14.7 5.3 34 8.2 WSW 32 59 17 32 1014.6 1014.6 0.0
04/02:00pm 22.6 16.3 7.2 37 8.0 WSW 30 41 16 22 1014.7 1014.7 0.0
04/01:30pm 22.5 16.2 7.5 38 7.8 WSW 30 46 16 25 1014.9 1014.9 0.0
04/01:18pm 20.8 14.3 6.7 40 7.1 W 30 59 16 32 1014.7 1014.7 0.0
04/01:00pm 21.0 14.5 8.0 43 6.8 WSW 32 43 17 23 1015.1 1015.1 0.0
04/12:30pm 20.7 14.5 6.3 39 7.2 W 28 39 15 21 1015.3 1015.3 0.0
04/12:00pm 19.3 12.6 7.4 46 6.0 WSW 32 41 17 22 1015.4 1015.4 0.0
04/11:30am 19.4 13.3 6.8 44 6.3 W 28 35 15 19 1015.2 1015.2 0.0
04/11:00am 20.0 13.3 7.4 44 6.4 W 32 44 17 24 1015.3 1015.3 0.0
04/10:30am 19.4 13.3 8.4 49 5.7 W 30 44 16 24 1015.4 1015.4 0.0
04/10:00am 17.9 12.2 8.5 54 4.8 W 28 41 15 22 1015.6 1015.6 0.0
04/09:30am 17.2 11.1 9.6 61 4.0 WSW 32 39 17 21 1015.7 1015.7 0.0
04/09:00am 17.6 11.6 10.0 61 4.0 SW 32 43 17 23 1015.7 1015.7 0.0
04/08:30am 16.1 11.4 9.3 64 3.5 WSW 24 35 13 19 1015.2 1015.2 0.0
04/08:00am 14.8 11.1 10.2 74 2.4 W 20 26 11 14 1015.0 1015.0 0.0
04/07:30am 12.7 9.9 9.9 83 1.4 W 15 20 8 11 1014.7 1014.7 0.0
04/07:00am 10.2 7.5 8.8 91 0.7 W 13 17 7 9 1014.4 1014.4 0.0
04/06:30am 9.2 6.8 8.6 96 0.3 WNW 11 13 6 7 1014.4 1014.4 0.0
04/06:00am 6.6 3.6 5.9 95 0.3 WNW 11 13 6 7 1014.4 1014.4 0.0
04/05:30am 7.0 4.8 6.1 94 0.4 WSW 7 9 4 5 1014.0 1014.0 0.0
04/05:00am 6.7 5.7 5.7 93 0.4 CALM 0 0 0 0 1013.8 1013.8 0.0
04/04:30am 7.9 4.7 7.0 94 0.4 NW 13 13 7 7 1013.9 1013.9 0.0
04/04:00am 7.8 5.3 6.7 93 0.5 WNW 9 11 5 6 1014.0 1014.0 0.0
04/03:30am 8.0 7.2 6.5 90 0.7 CALM 0 0 0 0 1014.4 1014.4 0.0
04/03:00am 8.2 6.3 6.5 89 0.8 E 6 7 3 4 1014.4 1014.4 0.0
04/02:30am 9.3 7.0 7.3 87 0.9 ENE 9 11 5 6 1014.7 1014.7 0.0
04/02:00am 9.3 6.3 7.7 90 0.8 NE 13 15 7 8 1015.0 1015.0 0.0
04/01:30am 8.8 5.6 6.9 88 0.9 NE 13 15 7 8 1015.7 1015.7 0.0
04/01:00am 9.6 7.0 7.7 88 0.9 NE 11 15 6 8 1016.3 1016.3 0.0
04/12:30am 9.2 6.6 7.6 90 0.8 NE 11 13 6 7 1017.0 1017.0 0.0
04/12:00am 8.9 6.2 7.5 91 0.7 NE 11 13 6 7 1017.6 1017.6 0.0
 
Date/Time
EDT
Temp
°C
App
Temp
°C
Dew
Point
°C
Rel
Hum
%
Delta-T
°C
Wind Press
QNH
hPa
Press
MSL
hPa
Rain since
9am
mm
Dir  Spd
km/h
Gust
km/h
Spd
kts
Gust
kts
03/11:30pm 9.1 6.5 7.7 91 0.7 NNE 11 11 6 6 1018.0 1018.0 0.0
03/11:00pm 9.3 6.6 7.4 88 0.9 NNE 11 11 6 6 1018.5 1018.5 0.0
03/10:30pm 9.8 7.5 7.6 86 1.1 NNE 9 11 5 6 1018.8 1018.8 0.0
03/10:00pm 10.0 7.7 7.6 85 1.1 NNE 9 9 5 5 1018.8 1018.8 0.0
03/09:30pm 10.3 8.0 7.5 83 1.3 NNE 9 9 5 5 1018.8 1018.8 0.0
03/09:00pm 11.4 9.2 7.7 78 1.8 NE 9 11 5 6 1018.6 1018.6 0.0
03/08:30pm 13.8 11.8 8.6 71 2.6 ENE 9 13 5 7 1018.6 1018.6 0.0
03/08:00pm 14.7 11.7 9.3 70 2.8 NE 15 19 8 10 1018.4 1018.4 0.0
03/07:30pm 16.7 15.2 9.1 61 3.9 ESE 7 9 4 5 1018.2 1018.2 0.0
03/07:00pm 17.3 15.4 9.2 59 4.2 SSE 9 13 5 7 1018.2 1018.2 0.0
03/06:30pm 17.7 16.3 9.6 59 4.3 SE 7 15 4 8 1018.6 1018.6 0.0
03/06:00pm 16.7 14.3 8.7 59 4.1 SE 11 20 6 11 1018.8 1018.8 0.0
03/05:30pm 17.9 14.5 9.0 56 4.6 S 17 24 9 13 1019.1 1019.1 0.0
03/05:00pm 17.8 13.8 8.4 54 4.8 SSE 19 26 10 14 1019.2 1019.2 0.0
03/04:30pm 18.6 14.6 8.3 51 5.3 SSE 19 26 10 14 1019.1 1019.1 0.0
03/04:00pm 18.2 14.2 8.2 52 5.1 S 19 28 10 15 1018.9 1018.9 0.0
03/03:30pm 18.9 13.6 8.3 50 5.5 SSE 26 35 14 19 1018.9 1018.9 0.0
03/03:00pm 20.4 17.9 8.1 45 6.4 SSW 11 24 6 13 1019.0 1019.0 0.0
03/02:30pm 20.4 17.5 8.1 45 6.4 SSE 13 19 7 10 1019.1 1019.1 0.0
03/02:00pm 20.0 16.2 7.4 44 6.4 SSW 17 28 9 15 1019.1 1019.1 0.0
03/01:30pm 20.6 15.8 7.2 42 6.8 SSW 22 32 12 17 1019.2 1019.2 0.0
03/01:00pm 20.0 17.1 6.7 42 6.7 WNW 11 19 6 10 1020.0 1020.0 0.0
03/12:30pm 19.4 16.7 5.5 40 6.8 W 9 15 5 8 1020.4 1020.4 0.0
03/12:00pm 18.7 15.4 6.5 45 6.1 WSW 13 20 7 11 1020.9 1020.9 0.0
03/11:30am 17.8 14.3 5.4 44 6.0 SW 13 24 7 13 1021.1 1021.1 0.0
03/11:00am 17.1 14.4 5.4 46 5.6 SW 9 15 5 8 1021.6 1021.6 0.0
03/10:30am 17.7 13.3 5.0 43 6.1 WSW 17 22 9 12 1021.9 1021.9 0.0
03/10:00am 16.6 13.5 5.6 48 5.3 WNW 11 19 6 10 1022.4 1022.4 0.0
03/09:30am 16.4 13.0 5.7 49 5.2 WSW 13 20 7 11 1022.6 1022.6 0.0
03/09:00am 15.7 12.6 5.6 51 4.8 WSW 11 19 6 10 1023.0 1023.0 0.0
03/08:30am 14.6 12.0 5.9 56 4.2 SW 9 13 5 7 1023.0 1023.0 0.0
03/08:00am 12.8 10.4 7.0 68 2.8 W 9 11 5 6 1022.7 1022.7 0.0
03/07:30am 11.7 10.0 7.6 76 2.0 NW 6 7 3 4 1022.2 1022.2 0.0
03/07:00am 9.5 7.1 7.1 85 1.1 WNW 9 11 5 6 1022.5 1022.5 0.0
03/06:30am 8.8 8.1 6.9 88 0.9 CALM 0 0 0 0 1022.5 1022.5 0.0
03/06:00am 9.2 7.3 7.6 90 0.8 NW 7 7 4 4 1022.6 1022.6 0.0
03/05:30am 8.7 8.1 7.5 92 0.6 CALM 0 0 0 0 1022.2 1022.2 0.0
03/05:00am 8.2 7.5 7.0 92 0.6 CALM 0 0 0 0 1021.7 1021.7 0.0
03/04:30am 7.7 6.9 6.5 92 0.5 CALM 0 0 0 0 1021.8 1021.8 0.0
03/04:00am 7.4 6.1 6.2 92 0.5 NNW 2 6 1 3 1022.3 1022.3 0.0
03/03:30am 6.2 4.7 4.8 91 0.6 NNW 2 7 1 4 1022.3 1022.3 0.0
03/03:00am 5.3 2.8 3.6 89 0.7 NNW 6 7 3 4 1022.6 1022.6 0.0
03/02:30am 6.5 3.6 4.8 89 0.7 WNW 9 11 5 6 1022.8 1022.8 0.0
03/02:00am 6.5 3.2 4.7 88 0.8 WNW 11 13 6 7 1023.2 1023.2 0.0
03/01:30am 7.2 4.4 5.0 86 1.0 NW 9 13 5 7 1023.8 1023.8 0.0
03/01:00am 6.4 3.4 3.9 84 1.1 NNW 9 11 5 6 1024.3 1024.3 0.0
03/12:30am 7.1 3.4 4.4 83 1.2 NW 13 15 7 8 1024.5 1024.5 0.0
03/12:00am 7.2 3.9 4.7 84 1.1 NW 11 13 6 7 1024.8 1024.8 0.0
 
Date/Time
EDT
Temp
°C
App
Temp
°C
Dew
Point
°C
Rel
Hum
%
Delta-T
°C
Wind Press
QNH
hPa
Press
MSL
hPa
Rain since
9am
mm
Dir  Spd
km/h
Gust
km/h
Spd
kts
Gust
kts
02/11:30pm 7.9 4.6 4.7 80 1.4 NW 11 13 6 7 1025.0 1025.0 0.0
02/11:00pm 7.8 4.6 5.3 84 1.1 WNW 11 13 6 7 1025.1 1025.1 0.0
02/10:30pm 8.0 5.1 4.8 80 1.4 WNW 9 13 5 7 1025.0 1025.0 0.0
02/10:00pm 8.4 5.6 5.2 80 1.4 NW 9 11 5 6 1025.2 1025.2 0.0
02/09:30pm 9.8 6.0 5.6 75 1.9 W 15 17 8 9 1024.6 1024.6 0.0
02/09:00pm 10.0 7.2 5.2 72 2.2 WSW 9 11 5 6 1024.6 1024.6 0.0
02/08:30pm 11.7 7.9 5.6 66 2.8 SW 15 19 8 10 1024.5 1024.5 0.0
02/08:00pm 13.6 8.9 6.2 61 3.5 SW 20 28 11 15 1024.4 1024.4 0.0
02/07:30pm 14.3 8.9 6.4 59 3.8 SW 24 32 13 17 1024.2 1024.2 0.0
02/07:00pm 15.4 8.4 6.2 54 4.4 SW 32 39 17 21 1023.7 1023.7 0.0
02/06:30pm 16.2 9.8 5.2 48 5.2 WSW 28 39 15 21 1023.3 1023.3 0.0
02/06:00pm 17.0 8.8 2.6 38 6.5 WSW 35 48 19 26 1022.8 1022.8 0.0
02/05:30pm 17.8 9.7 3.3 38 6.7 WSW 35 44 19 24 1022.8 1022.8 0.0
02/05:18pm 17.8 9.7 3.3 38 6.7 WSW 35 54 19 29 1022.7 1022.7 0.0

Other formats

Comma delimited format used in spreadsheet applications
http://www.bom.gov.au/fwo/IDV60801/IDV60801.95890.axf

JavaScript Object Notation format (JSON) in row-major order
http://www.bom.gov.au/fwo/IDV60801/IDV60801.95890.json

Data quality

Most of these data are generated automatically and are frequently updated. Quality checks on data are not normally performed. It is possible for incorrect values to appear. Refer to information at About Latest Weather Observations and please check the disclaimer before using these data.